Fellsmere, Florida
Current Conditions -  °F | °C
As of 2:53 PM on Monday 26 Jan 2015 (Local Time) from KVRB Reporting Station
Scattered Clouds Scattered Clouds  
Wind Chill: 70°   Ceiling: Unl
Heat Index: 70°   Visibility: 10mi
Dew Point: 44°   Wind: 24mph
Humidity: 39%   Direction: 270°W
Pressure: 29.82"   Gusts: 36mph
Location:  27.77°N, 80.6°W
Report Text: KVRB 261953Z 27021G31KT 10SM SCT055 21/07 A2982 RMK AO2 PK WND 25033/1905 SLP096 T02110067
Loading
Personal Weather Stations






























Interactive Weather Map New forecast layout! Learn more

10-Day Weather Forecast

Advertisements
Track Severe Weather on mobile